Ann Arbor, MI

2:01 PM EDT on June 30, 2015 (GMT -0400)
Virginia Park | | Change Station
CLOSE
Current Station
Personal Weather Station
Location: Ann Arbor, MI
Elevation: 896 ft
Nearby Weather Stations

Elev 896 ft 42.28 °N, 83.77 °W | Updated 2 seconds ago

Mostly Cloudy
Mostly Cloudy
75.7 °F
Feels Like 78 °F
N
3.0
Wind Variable Wind from South
Gusts 3.0 mph

Today
High -- | Low -- °F
--% Chance of Precip.
Yesterday
High -- | Low -- °F
Precip. -- in
6:01 AM 9:15 PM
Waxing Gibbous, 98% visible
Pressure 29.78 in
Visibility 10.0 miles
Clouds Scattered Clouds 2900 ft
Scattered Clouds 3400 ft
Mostly Cloudy 6000 ft
Heat Index 78 °F
Dew Point 61 °F
Humidity 60%
Rainfall in
Snow Depth Not available.
UV 6 out of 12
Pollen 1.50 out of 12
Air Quality Not available.
Flu Activity Sporadic
METAR KARB 301653Z 25004KT 10SM SCT029 SCT034 BKN060 22/16 A2979 RMK AO2 SLP084 T02220161

More Conditions Fewer Conditions

Pressure 29.78 in
Visibility 10.0 miles
Clouds Scattered Clouds 2900 ft
Scattered Clouds 3400 ft
Mostly Cloudy 6000 ft
Heat Index 78 °F
Dew Point 61 °F
Humidity 60%
Rainfall in
Snow Depth Not available.
UV 6 out of 12
Pollen 1.50 out of 12
Air Quality Not available.
Flu Activity Sporadic
METAR KARB 301653Z 25004KT 10SM SCT029 SCT034 BKN060 22/16 A2979 RMK AO2 SLP084 T02220161

More Conditions Fewer Conditions

10-Day Weather Forecast

×

Almanac

Astronomy

Jun. 30, 2015 Rise Set
Actual Time
Civil Twilight
Nautical Twilight
Astronomical Twilight
Moon
Length of Visible Light
Length of Day
Tomorrow will be .
, % of the Moon is Illuminated

Today's Extremes

State Highs State Lows

Community

WunderPhotos

Upload Photos

1,834,042 photos uploaded!

WunderBlogs® & News

Nearby

Air Quality

  Air Quality AQ Index Pollutant
Not available.

Snow Depth

Station Depth Elevation

Earthquake Activity

City Distance Mag. Time & Date
Minimum magnitude displayed is 2.5.

Coastal Water Temperatures

Place Temperature

Stations

Nearby Weather Stations

Station Location Temp. Windchill Dew Point Humidity Wind Precip. Elev Updated Type